sensor_id;sensor_type;location;lat;lon;timestamp;P1;durP1;ratioP1;P2;durP2;ratioP2
21822;SDS011;11074;48.596;9.238;2023-06-26T00:00:18;9.43;;;7.15;;
21822;SDS011;11074;48.596;9.238;2023-06-26T00:02:44;11.93;;;7.78;;
21822;SDS011;11074;48.596;9.238;2023-06-26T00:05:10;8.90;;;7.25;;
21822;SDS011;11074;48.596;9.238;2023-06-26T00:07:36;9.10;;;7.38;;
21822;SDS011;11074;48.596;9.238;2023-06-26T00:10:02;9.32;;;7.15;;
21822;SDS011;11074;48.596;9.238;2023-06-26T00:12:29;11.70;;;7.70;;
21822;SDS011;11074;48.596;9.238;2023-06-26T00:14:55;9.55;;;7.47;;
21822;SDS011;11074;48.596;9.238;2023-06-26T00:17:21;9.63;;;7.50;;
21822;SDS011;11074;48.596;9.238;2023-06-26T00:19:47;9.35;;;7.45;;
21822;SDS011;11074;48.596;9.238;2023-06-26T00:22:13;9.77;;;7.57;;
21822;SDS011;11074;48.596;9.238;2023-06-26T00:24:39;10.13;;;7.80;;
21822;SDS011;11074;48.596;9.238;2023-06-26T00:27:05;11.43;;;7.65;;
21822;SDS011;11074;48.596;9.238;2023-06-26T00:29:31;9.25;;;7.28;;
21822;SDS011;11074;48.596;9.238;2023-06-26T00:31:56;9.07;;;7.53;;
21822;SDS011;11074;48.596;9.238;2023-06-26T00:34:22;9.90;;;7.05;;
21822;SDS011;11074;48.596;9.238;2023-06-26T00:36:48;8.63;;;7.28;;
21822;SDS011;11074;48.596;9.238;2023-06-26T00:39:13;8.98;;;6.93;;
21822;SDS011;11074;48.596;9.238;2023-06-26T00:41:40;9.43;;;7.38;;
21822;SDS011;11074;48.596;9.238;2023-06-26T00:44:06;9.20;;;7.10;;
21822;SDS011;11074;48.596;9.238;2023-06-26T00:46:32;10.13;;;7.93;;
21822;SDS011;11074;48.596;9.238;2023-06-26T00:48:59;9.43;;;7.40;;
21822;SDS011;11074;48.596;9.238;2023-06-26T00:51:28;11.77;;;7.53;;
21822;SDS011;11074;48.596;9.238;2023-06-26T00:53:55;10.57;;;7.60;;
21822;SDS011;11074;48.596;9.238;2023-06-26T00:56:22;8.02;;;7.18;;
21822;SDS011;11074;48.596;9.238;2023-06-26T00:58:48;8.93;;;7.03;;
21822;SDS011;11074;48.596;9.238;2023-06-26T01:01:15;8.77;;;7.40;;
21822;SDS011;11074;48.596;9.238;2023-06-26T01:03:45;9.65;;;7.53;;
21822;SDS011;11074;48.596;9.238;2023-06-26T01:06:16;10.15;;;7.70;;
21822;SDS011;11074;48.596;9.238;2023-06-26T01:08:44;9.77;;;7.40;;
21822;SDS011;11074;48.596;9.238;2023-06-26T01:11:12;10.98;;;7.55;;
21822;SDS011;11074;48.596;9.238;2023-06-26T01:13:39;8.95;;;7.20;;
21822;SDS011;11074;48.596;9.238;2023-06-26T01:16:09;9.07;;;7.47;;
21822;SDS011;11074;48.596;9.238;2023-06-26T01:18:35;10.20;;;7.97;;
21822;SDS011;11074;48.596;9.238;2023-06-26T01:21:06;9.00;;;7.03;;
21822;SDS011;11074;48.596;9.238;2023-06-26T01:23:39;9.52;;;7.20;;
21822;SDS011;11074;48.596;9.238;2023-06-26T01:26:24;9.90;;;6.93;;
21822;SDS011;11074;48.596;9.238;2023-06-26T01:28:55;10.43;;;7.65;;
21822;SDS011;11074;48.596;9.238;2023-06-26T01:31:24;10.40;;;7.32;;
21822;SDS011;11074;48.596;9.238;2023-06-26T01:33:52;8.57;;;7.30;;
21822;SDS011;11074;48.596;9.238;2023-06-26T01:36:19;8.40;;;6.90;;
21822;SDS011;11074;48.596;9.238;2023-06-26T01:38:45;11.23;;;7.22;;
21822;SDS011;11074;48.596;9.238;2023-06-26T01:41:10;10.40;;;7.75;;
21822;SDS011;11074;48.596;9.238;2023-06-26T01:57:48;11.27;;;7.53;;
21822;SDS011;11074;48.596;9.238;2023-06-26T02:00:19;9.38;;;7.40;;
21822;SDS011;11074;48.596;9.238;2023-06-26T02:02:46;8.00;;;7.10;;
21822;SDS011;11074;48.596;9.238;2023-06-26T02:05:12;13.60;;;8.15;;
21822;SDS011;11074;48.596;9.238;2023-06-26T02:07:39;9.95;;;8.00;;
21822;SDS011;11074;48.596;9.238;2023-06-26T02:10:05;8.88;;;7.65;;
21822;SDS011;11074;48.596;9.238;2023-06-26T02:12:31;9.60;;;7.22;;
21822;SDS011;11074;48.596;9.238;2023-06-26T02:14:57;9.55;;;7.35;;
21822;SDS011;11074;48.596;9.238;2023-06-26T02:17:23;9.63;;;7.88;;
21822;SDS011;11074;48.596;9.238;2023-06-26T02:19:49;10.13;;;7.07;;
21822;SDS011;11074;48.596;9.238;2023-06-26T02:22:15;8.73;;;7.10;;
21822;SDS011;11074;48.596;9.238;2023-06-26T02:24:42;9.23;;;7.70;;
21822;SDS011;11074;48.596;9.238;2023-06-26T02:27:09;9.18;;;7.43;;
21822;SDS011;11074;48.596;9.238;2023-06-26T02:29:35;10.43;;;7.63;;
21822;SDS011;11074;48.596;9.238;2023-06-26T02:32:01;8.90;;;7.40;;
21822;SDS011;11074;48.596;9.238;2023-06-26T02:34:27;10.13;;;7.85;;
21822;SDS011;11074;48.596;9.238;2023-06-26T02:36:53;8.80;;;7.22;;
21822;SDS011;11074;48.596;9.238;2023-06-26T02:39:20;9.57;;;7.35;;
21822;SDS011;11074;48.596;9.238;2023-06-26T02:41:46;9.93;;;7.78;;
21822;SDS011;11074;48.596;9.238;2023-06-26T02:44:11;9.60;;;7.22;;
21822;SDS011;11074;48.596;9.238;2023-06-26T02:46:37;9.95;;;7.35;;
21822;SDS011;11074;48.596;9.238;2023-06-26T02:49:03;9.68;;;7.82;;
21822;SDS011;11074;48.596;9.238;2023-06-26T02:51:31;10.77;;;7.35;;
21822;SDS011;11074;48.596;9.238;2023-06-26T02:54:00;8.73;;;7.18;;
21822;SDS011;11074;48.596;9.238;2023-06-26T02:56:26;14.07;;;7.88;;
21822;SDS011;11074;48.596;9.238;2023-06-26T02:58:55;10.43;;;7.57;;
21822;SDS011;11074;48.596;9.238;2023-06-26T03:01:21;9.75;;;7.63;;
21822;SDS011;11074;48.596;9.238;2023-06-26T03:03:47;9.90;;;7.65;;
21822;SDS011;11074;48.596;9.238;2023-06-26T03:06:13;9.90;;;7.30;;
21822;SDS011;11074;48.596;9.238;2023-06-26T03:08:40;10.63;;;7.47;;
21822;SDS011;11074;48.596;9.238;2023-06-26T03:11:06;11.10;;;7.50;;
21822;SDS011;11074;48.596;9.238;2023-06-26T03:13:34;9.27;;;7.38;;
21822;SDS011;11074;48.596;9.238;2023-06-26T03:16:01;9.85;;;7.32;;
21822;SDS011;11074;48.596;9.238;2023-06-26T03:18:27;9.85;;;7.47;;
21822;SDS011;11074;48.596;9.238;2023-06-26T03:20:54;8.68;;;6.90;;
21822;SDS011;11074;48.596;9.238;2023-06-26T03:23:21;10.27;;;7.72;;
21822;SDS011;11074;48.596;9.238;2023-06-26T03:25:48;10.20;;;7.25;;
21822;SDS011;11074;48.596;9.238;2023-06-26T03:28:14;11.20;;;7.45;;
21822;SDS011;11074;48.596;9.238;2023-06-26T03:30:41;10.52;;;7.57;;
21822;SDS011;11074;48.596;9.238;2023-06-26T03:33:06;10.00;;;7.80;;
21822;SDS011;11074;48.596;9.238;2023-06-26T03:35:32;10.15;;;7.65;;
21822;SDS011;11074;48.596;9.238;2023-06-26T03:37:58;11.95;;;8.45;;
21822;SDS011;11074;48.596;9.238;2023-06-26T03:40:25;9.55;;;7.70;;
21822;SDS011;11074;48.596;9.238;2023-06-26T03:42:51;9.20;;;7.40;;
21822;SDS011;11074;48.596;9.238;2023-06-26T03:45:17;9.02;;;7.43;;
21822;SDS011;11074;48.596;9.238;2023-06-26T03:47:44;10.43;;;7.55;;
21822;SDS011;11074;48.596;9.238;2023-06-26T03:50:13;10.02;;;7.35;;
21822;SDS011;11074;48.596;9.238;2023-06-26T03:52:42;10.30;;;7.38;;
21822;SDS011;11074;48.596;9.238;2023-06-26T03:55:08;9.27;;;7.20;;
21822;SDS011;11074;48.596;9.238;2023-06-26T03:57:34;9.43;;;7.32;;
21822;SDS011;11074;48.596;9.238;2023-06-26T03:59:59;12.15;;;7.65;;
21822;SDS011;11074;48.596;9.238;2023-06-26T04:02:25;9.00;;;7.43;;
21822;SDS011;11074;48.596;9.238;2023-06-26T04:04:51;9.77;;;7.15;;
21822;SDS011;11074;48.596;9.238;2023-06-26T04:07:17;9.82;;;7.43;;
21822;SDS011;11074;48.596;9.238;2023-06-26T04:09:43;9.73;;;7.63;;
21822;SDS011;11074;48.596;9.238;2023-06-26T04:12:09;10.52;;;8.15;;
21822;SDS011;11074;48.596;9.238;2023-06-26T04:14:35;12.85;;;8.07;;
21822;SDS011;11074;48.596;9.238;2023-06-26T04:17:01;9.77;;;7.18;;
21822;SDS011;11074;48.596;9.238;2023-06-26T04:19:28;10.18;;;7.93;;
21822;SDS011;11074;48.596;9.238;2023-06-26T04:21:55;9.63;;;6.90;;
21822;SDS011;11074;48.596;9.238;2023-06-26T04:24:21;10.55;;;7.60;;
21822;SDS011;11074;48.596;9.238;2023-06-26T04:26:47;12.98;;;7.60;;
21822;SDS011;11074;48.596;9.238;2023-06-26T04:29:13;9.60;;;7.50;;
21822;SDS011;11074;48.596;9.238;2023-06-26T04:31:39;10.88;;;7.28;;
21822;SDS011;11074;48.596;9.238;2023-06-26T04:34:05;11.25;;;7.43;;
21822;SDS011;11074;48.596;9.238;2023-06-26T04:36:31;9.85;;;7.78;;
21822;SDS011;11074;48.596;9.238;2023-06-26T04:38:58;9.10;;;7.25;;
21822;SDS011;11074;48.596;9.238;2023-06-26T04:41:24;10.35;;;7.13;;
21822;SDS011;11074;48.596;9.238;2023-06-26T04:43:50;11.57;;;8.60;;
21822;SDS011;11074;48.596;9.238;2023-06-26T04:46:16;9.88;;;7.25;;
21822;SDS011;11074;48.596;9.238;2023-06-26T04:48:44;8.85;;;7.55;;
21822;SDS011;11074;48.596;9.238;2023-06-26T04:51:10;11.55;;;7.88;;
21822;SDS011;11074;48.596;9.238;2023-06-26T04:57:11;12.30;;;7.70;;
21822;SDS011;11074;48.596;9.238;2023-06-26T04:59:37;15.60;;;7.95;;
21822;SDS011;11074;48.596;9.238;2023-06-26T05:02:02;10.52;;;7.70;;
21822;SDS011;11074;48.596;9.238;2023-06-26T05:04:30;9.43;;;7.85;;
21822;SDS011;11074;48.596;9.238;2023-06-26T05:06:55;9.57;;;7.53;;
21822;SDS011;11074;48.596;9.238;2023-06-26T05:09:21;9.30;;;7.07;;
21822;SDS011;11074;48.596;9.238;2023-06-26T05:11:47;9.80;;;7.80;;
21822;SDS011;11074;48.596;9.238;2023-06-26T05:14:12;9.65;;;7.32;;
21822;SDS011;11074;48.596;9.238;2023-06-26T05:16:38;9.85;;;8.00;;
21822;SDS011;11074;48.596;9.238;2023-06-26T05:19:04;9.32;;;7.30;;
21822;SDS011;11074;48.596;9.238;2023-06-26T05:21:30;9.15;;;6.80;;
21822;SDS011;11074;48.596;9.238;2023-06-26T05:23:56;10.10;;;7.43;;
21822;SDS011;11074;48.596;9.238;2023-06-26T05:26:23;10.48;;;7.32;;
21822;SDS011;11074;48.596;9.238;2023-06-26T05:28:50;10.55;;;7.45;;
21822;SDS011;11074;48.596;9.238;2023-06-26T05:31:16;11.13;;;7.00;;
21822;SDS011;11074;48.596;9.238;2023-06-26T05:33:43;10.00;;;7.50;;
21822;SDS011;11074;48.596;9.238;2023-06-26T05:36:10;10.27;;;7.63;;
21822;SDS011;11074;48.596;9.238;2023-06-26T05:38:40;10.73;;;7.07;;
21822;SDS011;11074;48.596;9.238;2023-06-26T05:41:06;9.55;;;6.78;;
21822;SDS011;11074;48.596;9.238;2023-06-26T05:43:32;9.55;;;7.18;;
21822;SDS011;11074;48.596;9.238;2023-06-26T05:45:57;10.27;;;6.90;;
21822;SDS011;11074;48.596;9.238;2023-06-26T05:48:23;9.13;;;6.68;;
21822;SDS011;11074;48.596;9.238;2023-06-26T05:50:49;9.48;;;7.50;;
21822;SDS011;11074;48.596;9.238;2023-06-26T05:53:15;9.65;;;6.97;;
21822;SDS011;11074;48.596;9.238;2023-06-26T05:55:41;9.10;;;7.40;;
21822;SDS011;11074;48.596;9.238;2023-06-26T05:58:07;11.32;;;6.85;;
21822;SDS011;11074;48.596;9.238;2023-06-26T06:00:36;9.57;;;7.32;;
21822;SDS011;11074;48.596;9.238;2023-06-26T06:03:05;9.27;;;6.72;;
21822;SDS011;11074;48.596;9.238;2023-06-26T06:05:30;8.70;;;7.10;;
21822;SDS011;11074;48.596;9.238;2023-06-26T06:07:56;10.77;;;7.35;;
21822;SDS011;11074;48.596;9.238;2023-06-26T06:10:22;10.32;;;6.80;;
21822;SDS011;11074;48.596;9.238;2023-06-26T06:12:47;9.63;;;7.10;;
21822;SDS011;11074;48.596;9.238;2023-06-26T06:15:13;8.95;;;6.68;;
21822;SDS011;11074;48.596;9.238;2023-06-26T06:17:39;7.95;;;6.13;;
21822;SDS011;11074;48.596;9.238;2023-06-26T06:20:04;8.32;;;6.93;;
21822;SDS011;11074;48.596;9.238;2023-06-26T06:22:31;10.60;;;6.65;;
21822;SDS011;11074;48.596;9.238;2023-06-26T06:24:57;8.80;;;6.70;;
21822;SDS011;11074;48.596;9.238;2023-06-26T06:27:22;8.63;;;6.95;;
21822;SDS011;11074;48.596;9.238;2023-06-26T06:29:48;8.50;;;6.63;;
21822;SDS011;11074;48.596;9.238;2023-06-26T06:32:14;8.95;;;6.40;;
21822;SDS011;11074;48.596;9.238;2023-06-26T06:34:39;8.50;;;6.65;;
21822;SDS011;11074;48.596;9.238;2023-06-26T06:37:05;9.30;;;7.05;;
21822;SDS011;11074;48.596;9.238;2023-06-26T06:39:31;8.00;;;6.80;;
21822;SDS011;11074;48.596;9.238;2023-06-26T06:41:56;9.68;;;6.18;;
21822;SDS011;11074;48.596;9.238;2023-06-26T06:44:22;7.32;;;6.25;;
21822;SDS011;11074;48.596;9.238;2023-06-26T06:46:48;9.13;;;6.70;;
21822;SDS011;11074;48.596;9.238;2023-06-26T06:49:13;8.30;;;6.35;;
21822;SDS011;11074;48.596;9.238;2023-06-26T06:51:39;10.27;;;6.03;;
21822;SDS011;11074;48.596;9.238;2023-06-26T06:54:05;10.30;;;6.90;;
21822;SDS011;11074;48.596;9.238;2023-06-26T06:56:30;8.40;;;6.53;;
21822;SDS011;11074;48.596;9.238;2023-06-26T06:58:56;8.02;;;6.20;;
21822;SDS011;11074;48.596;9.238;2023-06-26T07:01:22;9.48;;;6.53;;
21822;SDS011;11074;48.596;9.238;2023-06-26T07:03:47;10.77;;;6.75;;
21822;SDS011;11074;48.596;9.238;2023-06-26T07:06:13;7.18;;;6.15;;
21822;SDS011;11074;48.596;9.238;2023-06-26T07:08:39;9.88;;;6.20;;
21822;SDS011;11074;48.596;9.238;2023-06-26T07:11:04;8.40;;;6.22;;
21822;SDS011;11074;48.596;9.238;2023-06-26T07:13:30;8.65;;;5.28;;
21822;SDS011;11074;48.596;9.238;2023-06-26T07:15:56;8.63;;;6.25;;
21822;SDS011;11074;48.596;9.238;2023-06-26T07:18:21;7.28;;;6.00;;
21822;SDS011;11074;48.596;9.238;2023-06-26T07:20:47;8.60;;;6.20;;
21822;SDS011;11074;48.596;9.238;2023-06-26T07:23:13;7.95;;;5.97;;
21822;SDS011;11074;48.596;9.238;2023-06-26T07:25:38;7.85;;;5.28;;
21822;SDS011;11074;48.596;9.238;2023-06-26T07:28:09;7.15;;;5.93;;
21822;SDS011;11074;48.596;9.238;2023-06-26T07:30:38;8.75;;;6.00;;
21822;SDS011;11074;48.596;9.238;2023-06-26T07:33:04;8.10;;;5.70;;
21822;SDS011;11074;48.596;9.238;2023-06-26T07:35:30;9.05;;;5.90;;
21822;SDS011;11074;48.596;9.238;2023-06-26T07:37:56;8.27;;;5.65;;
21822;SDS011;11074;48.596;9.238;2023-06-26T07:40:22;8.85;;;6.07;;
21822;SDS011;11074;48.596;9.238;2023-06-26T07:42:47;6.80;;;6.10;;
21822;SDS011;11074;48.596;9.238;2023-06-26T07:45:13;8.43;;;5.60;;
21822;SDS011;11074;48.596;9.238;2023-06-26T07:47:39;8.85;;;5.78;;
21822;SDS011;11074;48.596;9.238;2023-06-26T07:50:06;7.38;;;5.78;;
21822;SDS011;11074;48.596;9.238;2023-06-26T07:52:32;9.95;;;6.65;;
21822;SDS011;11074;48.596;9.238;2023-06-26T07:54:59;7.55;;;5.75;;
21822;SDS011;11074;48.596;9.238;2023-06-26T07:57:25;7.07;;;5.47;;
21822;SDS011;11074;48.596;9.238;2023-06-26T07:59:50;7.43;;;5.78;;
21822;SDS011;11074;48.596;9.238;2023-06-26T08:02:16;7.03;;;5.75;;
21822;SDS011;11074;48.596;9.238;2023-06-26T08:04:43;6.20;;;4.95;;
21822;SDS011;11074;48.596;9.238;2023-06-26T08:07:09;6.18;;;5.45;;
21822;SDS011;11074;48.596;9.238;2023-06-26T08:09:35;9.20;;;5.82;;
21822;SDS011;11074;48.596;9.238;2023-06-26T08:12:01;7.60;;;5.90;;
21822;SDS011;11074;48.596;9.238;2023-06-26T08:14:26;7.35;;;5.45;;
21822;SDS011;11074;48.596;9.238;2023-06-26T08:16:52;9.50;;;5.82;;
21822;SDS011;11074;48.596;9.238;2023-06-26T08:19:18;7.07;;;5.72;;
21822;SDS011;11074;48.596;9.238;2023-06-26T08:21:45;6.95;;;5.72;;
21822;SDS011;11074;48.596;9.238;2023-06-26T08:24:12;8.23;;;6.00;;
21822;SDS011;11074;48.596;9.238;2023-06-26T08:26:38;6.57;;;5.80;;
21822;SDS011;11074;48.596;9.238;2023-06-26T08:29:04;8.02;;;6.07;;
21822;SDS011;11074;48.596;9.238;2023-06-26T08:31:36;5.90;;;4.95;;
21822;SDS011;11074;48.596;9.238;2023-06-26T08:34:03;6.95;;;5.70;;
21822;SDS011;11074;48.596;9.238;2023-06-26T08:36:30;7.70;;;5.43;;
21822;SDS011;11074;48.596;9.238;2023-06-26T08:38:56;7.05;;;5.95;;
21822;SDS011;11074;48.596;9.238;2023-06-26T08:41:22;6.55;;;5.38;;
21822;SDS011;11074;48.596;9.238;2023-06-26T08:43:48;7.80;;;5.40;;
21822;SDS011;11074;48.596;9.238;2023-06-26T08:46:17;6.00;;;5.05;;
21822;SDS011;11074;48.596;9.238;2023-06-26T08:49:28;6.78;;;5.38;;
21822;SDS011;11074;48.596;9.238;2023-06-26T08:51:49;6.25;;;5.13;;
21822;SDS011;11074;48.596;9.238;2023-06-26T08:54:42;10.43;;;5.53;;
21822;SDS011;11074;48.596;9.238;2023-06-26T08:57:14;7.43;;;5.32;;
21822;SDS011;11074;48.596;9.238;2023-06-26T08:59:44;7.18;;;5.43;;
21822;SDS011;11074;48.596;9.238;2023-06-26T09:02:12;9.27;;;5.15;;
21822;SDS011;11074;48.596;9.238;2023-06-26T09:04:38;5.93;;;5.03;;
21822;SDS011;11074;48.596;9.238;2023-06-26T09:07:05;10.32;;;5.53;;
21822;SDS011;11074;48.596;9.238;2023-06-26T09:09:31;7.65;;;5.85;;
21822;SDS011;11074;48.596;9.238;2023-06-26T09:11:57;6.43;;;5.07;;
21822;SDS011;11074;48.596;9.238;2023-06-26T09:14:23;7.72;;;5.78;;
21822;SDS011;11074;48.596;9.238;2023-06-26T09:16:49;6.80;;;5.25;;
21822;SDS011;11074;48.596;9.238;2023-06-26T09:19:15;7.10;;;5.20;;
21822;SDS011;11074;48.596;9.238;2023-06-26T09:21:41;7.43;;;5.30;;
21822;SDS011;11074;48.596;9.238;2023-06-26T09:24:09;6.18;;;5.45;;
21822;SDS011;11074;48.596;9.238;2023-06-26T09:26:35;7.55;;;5.57;;
21822;SDS011;11074;48.596;9.238;2023-06-26T09:29:03;8.23;;;5.50;;
21822;SDS011;11074;48.596;9.238;2023-06-26T09:31:30;7.10;;;5.63;;
21822;SDS011;11074;48.596;9.238;2023-06-26T09:33:58;6.45;;;5.57;;
21822;SDS011;11074;48.596;9.238;2023-06-26T09:36:27;6.18;;;4.65;;
21822;SDS011;11074;48.596;9.238;2023-06-26T09:38:57;6.82;;;5.32;;
21822;SDS011;11074;48.596;9.238;2023-06-26T09:41:37;6.88;;;5.88;;
21822;SDS011;11074;48.596;9.238;2023-06-26T09:44:03;8.48;;;5.55;;
21822;SDS011;11074;48.596;9.238;2023-06-26T09:46:31;5.70;;;5.18;;
21822;SDS011;11074;48.596;9.238;2023-06-26T09:49:04;6.57;;;4.93;;
21822;SDS011;11074;48.596;9.238;2023-06-26T09:51:32;6.13;;;5.47;;
21822;SDS011;11074;48.596;9.238;2023-06-26T09:53:59;6.05;;;5.45;;
21822;SDS011;11074;48.596;9.238;2023-06-26T09:56:27;6.68;;;5.15;;
21822;SDS011;11074;48.596;9.238;2023-06-26T09:58:58;7.25;;;5.53;;
21822;SDS011;11074;48.596;9.238;2023-06-26T10:01:30;7.07;;;5.10;;
21822;SDS011;11074;48.596;9.238;2023-06-26T10:03:57;6.32;;;5.20;;
21822;SDS011;11074;48.596;9.238;2023-06-26T10:06:27;6.68;;;5.30;;
21822;SDS011;11074;48.596;9.238;2023-06-26T10:09:01;6.60;;;5.20;;
21822;SDS011;11074;48.596;9.238;2023-06-26T10:11:36;11.95;;;5.28;;
21822;SDS011;11074;48.596;9.238;2023-06-26T10:14:10;6.55;;;4.95;;
21822;SDS011;11074;48.596;9.238;2023-06-26T10:16:37;7.95;;;5.38;;
21822;SDS011;11074;48.596;9.238;2023-06-26T10:19:08;6.25;;;5.13;;
21822;SDS011;11074;48.596;9.238;2023-06-26T10:21:36;6.60;;;5.50;;
21822;SDS011;11074;48.596;9.238;2023-06-26T10:24:05;6.57;;;5.15;;
21822;SDS011;11074;48.596;9.238;2023-06-26T10:26:35;8.95;;;5.30;;
21822;SDS011;11074;48.596;9.238;2023-06-26T10:29:07;7.40;;;5.82;;
21822;SDS011;11074;48.596;9.238;2023-06-26T10:31:34;6.13;;;5.25;;
21822;SDS011;11074;48.596;9.238;2023-06-26T10:34:02;6.43;;;5.32;;
21822;SDS011;11074;48.596;9.238;2023-06-26T10:36:29;6.18;;;5.07;;
21822;SDS011;11074;48.596;9.238;2023-06-26T10:38:57;6.05;;;5.00;;
21822;SDS011;11074;48.596;9.238;2023-06-26T10:41:30;6.15;;;5.22;;
21822;SDS011;11074;48.596;9.238;2023-06-26T10:44:07;5.65;;;4.70;;
21822;SDS011;11074;48.596;9.238;2023-06-26T10:46:50;6.80;;;5.47;;
21822;SDS011;11074;48.596;9.238;2023-06-26T10:49:18;6.65;;;5.60;;
21822;SDS011;11074;48.596;9.238;2023-06-26T10:51:49;8.27;;;5.47;;
21822;SDS011;11074;48.596;9.238;2023-06-26T10:54:16;6.88;;;5.30;;
21822;SDS011;11074;48.596;9.238;2023-06-26T10:56:44;5.90;;;5.30;;
21822;SDS011;11074;48.596;9.238;2023-06-26T10:59:16;6.00;;;5.13;;
21822;SDS011;11074;48.596;9.238;2023-06-26T11:01:54;6.97;;;5.07;;
21822;SDS011;11074;48.596;9.238;2023-06-26T11:07:19;7.20;;;5.53;;
21822;SDS011;11074;48.596;9.238;2023-06-26T11:15:13;5.80;;;5.20;;
21822;SDS011;11074;48.596;9.238;2023-06-26T11:17:44;6.55;;;5.47;;
21822;SDS011;11074;48.596;9.238;2023-06-26T11:20:11;7.88;;;5.70;;
21822;SDS011;11074;48.596;9.238;2023-06-26T11:22:41;6.47;;;5.53;;
21822;SDS011;11074;48.596;9.238;2023-06-26T11:25:08;6.22;;;5.50;;
21822;SDS011;11074;48.596;9.238;2023-06-26T11:27:42;7.38;;;5.50;;
21822;SDS011;11074;48.596;9.238;2023-06-26T11:30:09;7.97;;;6.22;;
21822;SDS011;11074;48.596;9.238;2023-06-26T11:32:48;8.45;;;6.25;;
21822;SDS011;11074;48.596;9.238;2023-06-26T11:35:21;7.05;;;6.03;;
21822;SDS011;11074;48.596;9.238;2023-06-26T11:37:57;6.97;;;6.22;;
21822;SDS011;11074;48.596;9.238;2023-06-26T11:40:27;7.20;;;6.05;;
21822;SDS011;11074;48.596;9.238;2023-06-26T11:42:55;8.23;;;6.53;;
21822;SDS011;11074;48.596;9.238;2023-06-26T11:45:23;8.68;;;6.55;;
21822;SDS011;11074;48.596;9.238;2023-06-26T11:47:48;7.22;;;6.45;;
21822;SDS011;11074;48.596;9.238;2023-06-26T11:50:17;7.20;;;5.70;;
21822;SDS011;11074;48.596;9.238;2023-06-26T11:52:43;6.70;;;5.97;;
21822;SDS011;11074;48.596;9.238;2023-06-26T11:55:10;9.10;;;6.55;;
21822;SDS011;11074;48.596;9.238;2023-06-26T11:57:36;12.98;;;6.95;;
21822;SDS011;11074;48.596;9.238;2023-06-26T12:00:12;12.55;;;6.40;;
21822;SDS011;11074;48.596;9.238;2023-06-26T12:02:39;8.45;;;6.25;;
21822;SDS011;11074;48.596;9.238;2023-06-26T12:05:06;8.77;;;6.32;;
21822;SDS011;11074;48.596;9.238;2023-06-26T12:07:32;11.82;;;6.50;;
21822;SDS011;11074;48.596;9.238;2023-06-26T12:09:59;7.75;;;6.30;;
21822;SDS011;11074;48.596;9.238;2023-06-26T12:12:26;6.63;;;5.93;;
21822;SDS011;11074;48.596;9.238;2023-06-26T12:14:52;7.32;;;6.35;;
21822;SDS011;11074;48.596;9.238;2023-06-26T12:17:17;11.48;;;6.28;;
21822;SDS011;11074;48.596;9.238;2023-06-26T12:19:50;8.75;;;6.05;;
21822;SDS011;11074;48.596;9.238;2023-06-26T12:22:16;7.85;;;6.07;;
21822;SDS011;11074;48.596;9.238;2023-06-26T12:24:43;6.55;;;5.85;;
21822;SDS011;11074;48.596;9.238;2023-06-26T12:27:11;8.45;;;6.22;;
21822;SDS011;11074;48.596;9.238;2023-06-26T12:29:46;7.60;;;5.63;;
21822;SDS011;11074;48.596;9.238;2023-06-26T12:32:18;6.05;;;5.45;;
21822;SDS011;11074;48.596;9.238;2023-06-26T12:34:46;7.38;;;5.90;;
21822;SDS011;11074;48.596;9.238;2023-06-26T12:37:15;7.32;;;6.15;;
21822;SDS011;11074;48.596;9.238;2023-06-26T12:39:59;10.60;;;6.45;;
21822;SDS011;11074;48.596;9.238;2023-06-26T12:42:27;7.63;;;6.10;;
21822;SDS011;11074;48.596;9.238;2023-06-26T12:44:57;5.93;;;5.30;;
21822;SDS011;11074;48.596;9.238;2023-06-26T12:47:24;6.97;;;5.50;;
21822;SDS011;11074;48.596;9.238;2023-06-26T12:49:54;6.85;;;6.15;;
21822;SDS011;11074;48.596;9.238;2023-06-26T12:52:20;8.18;;;6.53;;
21822;SDS011;11074;48.596;9.238;2023-06-26T12:54:46;6.82;;;6.13;;
21822;SDS011;11074;48.596;9.238;2023-06-26T12:57:17;7.78;;;6.25;;
21822;SDS011;11074;48.596;9.238;2023-06-26T12:59:43;10.13;;;5.78;;
21822;SDS011;11074;48.596;9.238;2023-06-26T13:02:09;6.68;;;5.90;;
21822;SDS011;11074;48.596;9.238;2023-06-26T13:04:36;7.78;;;6.45;;
21822;SDS011;11074;48.596;9.238;2023-06-26T13:07:05;7.30;;;6.00;;
21822;SDS011;11074;48.596;9.238;2023-06-26T13:09:34;8.07;;;5.90;;
21822;SDS011;11074;48.596;9.238;2023-06-26T13:12:00;7.50;;;6.13;;
21822;SDS011;11074;48.596;9.238;2023-06-26T13:14:28;8.63;;;6.00;;
21822;SDS011;11074;48.596;9.238;2023-06-26T13:16:55;9.50;;;6.05;;
21822;SDS011;11074;48.596;9.238;2023-06-26T13:19:20;7.68;;;5.65;;
21822;SDS011;11074;48.596;9.238;2023-06-26T13:21:46;7.10;;;6.00;;
21822;SDS011;11074;48.596;9.238;2023-06-26T13:24:12;7.18;;;5.80;;
21822;SDS011;11074;48.596;9.238;2023-06-26T13:26:38;9.77;;;6.55;;
21822;SDS011;11074;48.596;9.238;2023-06-26T13:29:04;8.35;;;5.82;;
21822;SDS011;11074;48.596;9.238;2023-06-26T13:31:31;6.97;;;5.90;;
21822;SDS011;11074;48.596;9.238;2023-06-26T13:34:03;11.13;;;6.38;;
21822;SDS011;11074;48.596;9.238;2023-06-26T13:36:29;7.40;;;6.22;;
21822;SDS011;11074;48.596;9.238;2023-06-26T13:38:54;7.97;;;6.25;;
21822;SDS011;11074;48.596;9.238;2023-06-26T13:41:23;9.07;;;6.15;;
21822;SDS011;11074;48.596;9.238;2023-06-26T13:43:50;7.15;;;6.45;;
21822;SDS011;11074;48.596;9.238;2023-06-26T13:46:16;7.22;;;6.07;;
21822;SDS011;11074;48.596;9.238;2023-06-26T13:48:43;6.65;;;5.95;;
21822;SDS011;11074;48.596;9.238;2023-06-26T13:51:10;8.15;;;5.93;;
21822;SDS011;11074;48.596;9.238;2023-06-26T13:53:36;7.45;;;6.03;;
21822;SDS011;11074;48.596;9.238;2023-06-26T13:56:01;7.72;;;6.05;;
21822;SDS011;11074;48.596;9.238;2023-06-26T13:58:27;11.52;;;6.28;;
21822;SDS011;11074;48.596;9.238;2023-06-26T14:00:54;7.90;;;6.07;;
21822;SDS011;11074;48.596;9.238;2023-06-26T14:03:20;7.75;;;6.30;;
21822;SDS011;11074;48.596;9.238;2023-06-26T14:05:46;6.72;;;5.72;;
21822;SDS011;11074;48.596;9.238;2023-06-26T14:08:12;7.68;;;6.00;;
21822;SDS011;11074;48.596;9.238;2023-06-26T14:10:39;7.25;;;6.30;;
21822;SDS011;11074;48.596;9.238;2023-06-26T14:13:04;7.32;;;5.40;;
21822;SDS011;11074;48.596;9.238;2023-06-26T14:15:30;8.30;;;5.65;;
21822;SDS011;11074;48.596;9.238;2023-06-26T14:17:57;5.93;;;5.10;;
21822;SDS011;11074;48.596;9.238;2023-06-26T14:20:24;6.82;;;6.13;;
21822;SDS011;11074;48.596;9.238;2023-06-26T14:22:49;7.80;;;6.03;;
21822;SDS011;11074;48.596;9.238;2023-06-26T14:25:16;7.45;;;5.50;;
21822;SDS011;11074;48.596;9.238;2023-06-26T14:27:41;8.40;;;5.60;;
21822;SDS011;11074;48.596;9.238;2023-06-26T14:30:08;7.20;;;5.43;;
21822;SDS011;11074;48.596;9.238;2023-06-26T14:32:34;7.35;;;5.50;;
21822;SDS011;11074;48.596;9.238;2023-06-26T14:35:00;6.85;;;5.63;;
21822;SDS011;11074;48.596;9.238;2023-06-26T14:37:28;8.77;;;5.72;;
21822;SDS011;11074;48.596;9.238;2023-06-26T14:39:55;8.73;;;5.78;;
21822;SDS011;11074;48.596;9.238;2023-06-26T14:42:22;6.78;;;5.50;;
21822;SDS011;11074;48.596;9.238;2023-06-26T14:44:48;8.65;;;5.45;;
21822;SDS011;11074;48.596;9.238;2023-06-26T14:47:15;7.22;;;5.40;;
21822;SDS011;11074;48.596;9.238;2023-06-26T14:49:41;6.55;;;5.70;;
21822;SDS011;11074;48.596;9.238;2023-06-26T14:52:07;6.63;;;4.97;;
21822;SDS011;11074;48.596;9.238;2023-06-26T14:54:33;6.13;;;5.03;;
21822;SDS011;11074;48.596;9.238;2023-06-26T14:57:01;7.07;;;4.80;;
21822;SDS011;11074;48.596;9.238;2023-06-26T14:59:28;7.95;;;5.30;;
21822;SDS011;11074;48.596;9.238;2023-06-26T15:01:54;5.60;;;4.82;;
21822;SDS011;11074;48.596;9.238;2023-06-26T15:04:19;5.85;;;4.20;;
21822;SDS011;11074;48.596;9.238;2023-06-26T15:06:45;5.90;;;4.28;;
21822;SDS011;11074;48.596;9.238;2023-06-26T15:09:11;4.80;;;4.28;;
21822;SDS011;11074;48.596;9.238;2023-06-26T15:11:36;8.10;;;4.30;;